sensor_id;sensor_type;location;lat;lon;timestamp;pressure;altitude;pressure_sealevel;temperature;humidity
51452;BME280;37521;52.020;-1.740;2023-04-25T00:01:03;99961.91;;;1.12;100.00
51452;BME280;37521;52.020;-1.740;2023-04-25T00:03:31;99957.66;;;1.04;100.00
51452;BME280;37521;52.020;-1.740;2023-04-25T00:06:00;99950.78;;;0.97;100.00
51452;BME280;37521;52.020;-1.740;2023-04-25T00:08:29;99943.06;;;0.85;100.00
51452;BME280;37521;52.020;-1.740;2023-04-25T00:10:59;99957.88;;;0.77;100.00
51452;BME280;37521;52.020;-1.740;2023-04-25T00:13:27;99957.06;;;0.69;100.00
51452;BME280;37521;52.020;-1.740;2023-04-25T00:15:55;99958.78;;;0.67;100.00
51452;BME280;37521;52.020;-1.740;2023-04-25T00:18:24;99958.88;;;0.61;100.00
51452;BME280;37521;52.020;-1.740;2023-04-25T00:20:55;99971.00;;;0.52;100.00
51452;BME280;37521;52.020;-1.740;2023-04-25T00:23:23;99962.41;;;0.47;100.00
51452;BME280;37521;52.020;-1.740;2023-04-25T00:25:52;99964.13;;;0.45;100.00
51452;BME280;37521;52.020;-1.740;2023-04-25T00:28:21;99969.44;;;0.30;100.00
51452;BME280;37521;52.020;-1.740;2023-04-25T00:30:49;99973.81;;;0.19;100.00
51452;BME280;37521;52.020;-1.740;2023-04-25T00:33:17;99971.28;;;0.04;100.00
51452;BME280;37521;52.020;-1.740;2023-04-25T00:35:45;99980.00;;;-0.07;100.00
51452;BME280;37521;52.020;-1.740;2023-04-25T00:38:13;99973.97;;;-0.16;100.00
51452;BME280;37521;52.020;-1.740;2023-04-25T00:40:42;99978.28;;;-0.21;100.00
51452;BME280;37521;52.020;-1.740;2023-04-25T00:43:11;99974.84;;;-0.28;100.00
51452;BME280;37521;52.020;-1.740;2023-04-25T00:45:43;99977.47;;;-0.36;100.00
51452;BME280;37521;52.020;-1.740;2023-04-25T00:48:12;99980.94;;;-0.37;100.00
51452;BME280;37521;52.020;-1.740;2023-04-25T00:50:41;99991.34;;;-0.40;100.00
51452;BME280;37521;52.020;-1.740;2023-04-25T00:53:10;99997.38;;;-0.48;100.00
51452;BME280;37521;52.020;-1.740;2023-04-25T00:55:38;99995.69;;;-0.52;100.00
51452;BME280;37521;52.020;-1.740;2023-04-25T00:58:06;99989.63;;;-0.58;100.00
51452;BME280;37521;52.020;-1.740;2023-04-25T01:00:35;99997.44;;;-0.67;100.00
51452;BME280;37521;52.020;-1.740;2023-04-25T01:03:05;99997.44;;;-0.67;100.00
51452;BME280;37521;52.020;-1.740;2023-04-25T01:05:34;99997.41;;;-0.64;100.00
51452;BME280;37521;52.020;-1.740;2023-04-25T01:08:02;100004.34;;;-0.72;100.00
51452;BME280;37521;52.020;-1.740;2023-04-25T01:10:30;100002.63;;;-0.79;100.00
51452;BME280;37521;52.020;-1.740;2023-04-25T01:12:58;99998.31;;;-0.85;100.00
51452;BME280;37521;52.020;-1.740;2023-04-25T01:15:27;99995.69;;;-0.89;100.00
51452;BME280;37521;52.020;-1.740;2023-04-25T01:17:56;100000.03;;;-0.91;100.00
51452;BME280;37521;52.020;-1.740;2023-04-25T01:20:26;99992.25;;;-0.91;100.00
51452;BME280;37521;52.020;-1.740;2023-04-25T01:22:57;100000.03;;;-0.93;100.00
51452;BME280;37521;52.020;-1.740;2023-04-25T01:25:26;99993.09;;;-0.94;100.00
51452;BME280;37521;52.020;-1.740;2023-04-25T01:27:54;99999.19;;;-0.93;100.00
51452;BME280;37521;52.020;-1.740;2023-04-25T01:30:23;99988.78;;;-0.96;100.00
51452;BME280;37521;52.020;-1.740;2023-04-25T01:32:52;99994.84;;;-0.99;100.00
51452;BME280;37521;52.020;-1.740;2023-04-25T01:35:22;99997.41;;;-1.00;100.00
51452;BME280;37521;52.020;-1.740;2023-04-25T01:37:54;99988.81;;;-1.05;100.00
51452;BME280;37521;52.020;-1.740;2023-04-25T01:40:24;99993.97;;;-1.15;100.00
51452;BME280;37521;52.020;-1.740;2023-04-25T01:42:53;99993.97;;;-1.19;100.00
51452;BME280;37521;52.020;-1.740;2023-04-25T01:45:21;99990.53;;;-1.20;100.00
51452;BME280;37521;52.020;-1.740;2023-04-25T01:47:50;99993.97;;;-1.18;100.00
51452;BME280;37521;52.020;-1.740;2023-04-25T01:50:19;99999.16;;;-1.18;100.00
51452;BME280;37521;52.020;-1.740;2023-04-25T01:52:48;99994.81;;;-1.22;100.00
51452;BME280;37521;52.020;-1.740;2023-04-25T01:55:18;99993.09;;;-1.30;100.00
51452;BME280;37521;52.020;-1.740;2023-04-25T01:57:57;99993.09;;;-1.33;100.00
51452;BME280;37521;52.020;-1.740;2023-04-25T02:00:41;99990.50;;;-1.32;100.00
51452;BME280;37521;52.020;-1.740;2023-04-25T02:03:09;100002.59;;;-1.39;100.00
51452;BME280;37521;52.020;-1.740;2023-04-25T02:05:39;99997.38;;;-1.52;100.00
51452;BME280;37521;52.020;-1.740;2023-04-25T02:08:10;99998.22;;;-1.50;100.00
51452;BME280;37521;52.020;-1.740;2023-04-25T02:10:38;99995.63;;;-1.47;100.00
51452;BME280;37521;52.020;-1.740;2023-04-25T02:13:16;99992.19;;;-1.52;100.00
51452;BME280;37521;52.020;-1.740;2023-04-25T02:16:02;99994.75;;;-1.55;100.00
51452;BME280;37521;52.020;-1.740;2023-04-25T02:18:31;99996.50;;;-1.57;100.00
51452;BME280;37521;52.020;-1.740;2023-04-25T02:21:00;99999.97;;;-1.52;100.00
51452;BME280;37521;52.020;-1.740;2023-04-25T02:23:29;99998.25;;;-1.46;100.00
51452;BME280;37521;52.020;-1.740;2023-04-25T02:25:59;99990.47;;;-1.44;100.00
51452;BME280;37521;52.020;-1.740;2023-04-25T02:28:29;99993.06;;;-1.44;100.00
51452;BME280;37521;52.020;-1.740;2023-04-25T02:30:57;100008.63;;;-1.46;100.00
51452;BME280;37521;52.020;-1.740;2023-04-25T02:33:25;100006.00;;;-1.47;100.00
51452;BME280;37521;52.020;-1.740;2023-04-25T02:35:53;100012.91;;;-1.49;100.00
51452;BME280;37521;52.020;-1.740;2023-04-25T02:38:21;100018.09;;;-1.52;100.00
51452;BME280;37521;52.020;-1.740;2023-04-25T02:40:49;100024.09;;;-1.61;100.00
51452;BME280;37521;52.020;-1.740;2023-04-25T02:43:17;100024.06;;;-1.69;100.00
51452;BME280;37521;52.020;-1.740;2023-04-25T02:45:47;100025.78;;;-1.78;100.00
51452;BME280;37521;52.020;-1.740;2023-04-25T02:48:15;100033.53;;;-1.80;100.00
51452;BME280;37521;52.020;-1.740;2023-04-25T02:50:43;100030.91;;;-1.81;100.00
51452;BME280;37521;52.020;-1.740;2023-04-25T02:53:12;100033.47;;;-1.92;100.00
51452;BME280;37521;52.020;-1.740;2023-04-25T02:55:46;100030.03;;;-1.91;100.00
51452;BME280;37521;52.020;-1.740;2023-04-25T02:58:14;100029.13;;;-1.96;100.00
51452;BME280;37521;52.020;-1.740;2023-04-25T03:00:48;100047.22;;;-2.02;100.00
51452;BME280;37521;52.020;-1.740;2023-04-25T03:03:16;100041.19;;;-2.04;100.00
51452;BME280;37521;52.020;-1.740;2023-04-25T03:05:49;100042.91;;;-2.03;100.00
51452;BME280;37521;52.020;-1.740;2023-04-25T03:08:23;100043.75;;;-2.04;100.00
51452;BME280;37521;52.020;-1.740;2023-04-25T03:10:53;100053.25;;;-2.03;100.00
51452;BME280;37521;52.020;-1.740;2023-04-25T03:13:23;100050.66;;;-2.06;100.00
51452;BME280;37521;52.020;-1.740;2023-04-25T03:15:53;100048.94;;;-2.04;100.00
51452;BME280;37521;52.020;-1.740;2023-04-25T03:18:22;100055.88;;;-2.00;100.00
51452;BME280;37521;52.020;-1.740;2023-04-25T03:20:50;100052.41;;;-1.99;100.00
51452;BME280;37521;52.020;-1.740;2023-04-25T03:23:18;100050.69;;;-1.94;100.00
51452;BME280;37521;52.020;-1.740;2023-04-25T03:25:46;100068.81;;;-1.94;100.00
51452;BME280;37521;52.020;-1.740;2023-04-25T03:28:14;100069.69;;;-1.89;100.00
51452;BME280;37521;52.020;-1.740;2023-04-25T03:30:42;100065.41;;;-1.85;100.00
51452;BME280;37521;52.020;-1.740;2023-04-25T03:33:12;100067.16;;;-1.83;100.00
51452;BME280;37521;52.020;-1.740;2023-04-25T03:35:40;100066.28;;;-1.85;100.00
51452;BME280;37521;52.020;-1.740;2023-04-25T03:38:10;100074.91;;;-1.86;100.00
51452;BME280;37521;52.020;-1.740;2023-04-25T03:40:39;100080.09;;;-1.83;100.00
51452;BME280;37521;52.020;-1.740;2023-04-25T03:43:18;100069.75;;;-1.83;100.00
51452;BME280;37521;52.020;-1.740;2023-04-25T03:45:53;100070.59;;;-1.84;100.00
51452;BME280;37521;52.020;-1.740;2023-04-25T03:48:24;100072.25;;;-1.97;100.00
51452;BME280;37521;52.020;-1.740;2023-04-25T03:50:53;100060.06;;;-2.16;100.00
51452;BME280;37521;52.020;-1.740;2023-04-25T03:53:22;100064.34;;;-2.23;100.00
51452;BME280;37521;52.020;-1.740;2023-04-25T03:56:08;100060.06;;;-2.19;100.00
51452;BME280;37521;52.020;-1.740;2023-04-25T03:58:38;100058.34;;;-2.17;100.00
51452;BME280;37521;52.020;-1.740;2023-04-25T04:01:07;100068.72;;;-2.14;100.00
51452;BME280;37521;52.020;-1.740;2023-04-25T04:03:39;100059.16;;;-2.23;100.00
51452;BME280;37521;52.020;-1.740;2023-04-25T04:06:08;100062.63;;;-2.27;100.00
51452;BME280;37521;52.020;-1.740;2023-04-25T04:08:41;100059.16;;;-2.26;100.00
51452;BME280;37521;52.020;-1.740;2023-04-25T04:11:10;100057.44;;;-2.25;100.00
51452;BME280;37521;52.020;-1.740;2023-04-25T04:13:38;100066.06;;;-2.25;100.00
51452;BME280;37521;52.020;-1.740;2023-04-25T04:16:07;100058.31;;;-2.26;100.00
51452;BME280;37521;52.020;-1.740;2023-04-25T04:18:35;100071.19;;;-2.29;100.00
51452;BME280;37521;52.020;-1.740;2023-04-25T04:21:05;100079.81;;;-2.29;100.00
51452;BME280;37521;52.020;-1.740;2023-04-25T04:23:37;100087.63;;;-2.23;100.00
51452;BME280;37521;52.020;-1.740;2023-04-25T04:26:07;100091.06;;;-2.24;100.00
51452;BME280;37521;52.020;-1.740;2023-04-25T04:28:43;100092.78;;;-2.23;100.00
51452;BME280;37521;52.020;-1.740;2023-04-25T04:31:19;100092.78;;;-2.23;100.00
51452;BME280;37521;52.020;-1.740;2023-04-25T04:33:48;100091.09;;;-2.21;100.00
51452;BME280;37521;52.020;-1.740;2023-04-25T04:36:18;100100.56;;;-2.23;100.00
51452;BME280;37521;52.020;-1.740;2023-04-25T04:38:50;100100.50;;;-2.30;100.00
51452;BME280;37521;52.020;-1.740;2023-04-25T04:41:31;100099.59;;;-2.38;100.00
51452;BME280;37521;52.020;-1.740;2023-04-25T04:44:25;100105.53;;;-2.50;100.00
51452;BME280;37521;52.020;-1.740;2023-04-25T04:47:12;100108.91;;;-2.57;100.00
51452;BME280;37521;52.020;-1.740;2023-04-25T04:50:07;100112.41;;;-2.49;100.00
51452;BME280;37521;52.020;-1.740;2023-04-25T04:52:56;100108.97;;;-2.51;100.00
51452;BME280;37521;52.020;-1.740;2023-04-25T04:55:38;100114.13;;;-2.51;100.00
51452;BME280;37521;52.020;-1.740;2023-04-25T04:58:21;100113.28;;;-2.52;100.00
51452;BME280;37521;52.020;-1.740;2023-04-25T05:01:01;100115.91;;;-2.47;100.00
51452;BME280;37521;52.020;-1.740;2023-04-25T05:03:37;100119.38;;;-2.45;100.00
51452;BME280;37521;52.020;-1.740;2023-04-25T05:06:12;100120.22;;;-2.46;100.00
51452;BME280;37521;52.020;-1.740;2023-04-25T05:08:52;100119.31;;;-2.48;100.00
51452;BME280;37521;52.020;-1.740;2023-04-25T05:11:39;100120.22;;;-2.46;100.00
51452;BME280;37521;52.020;-1.740;2023-04-25T05:14:25;100120.22;;;-2.46;100.00
51452;BME280;37521;52.020;-1.740;2023-04-25T05:17:05;100119.41;;;-2.39;100.00
51452;BME280;37521;52.020;-1.740;2023-04-25T05:19:45;100128.03;;;-2.37;100.00
51452;BME280;37521;52.020;-1.740;2023-04-25T05:22:32;100129.81;;;-2.33;100.00
51452;BME280;37521;52.020;-1.740;2023-04-25T05:25:20;100140.16;;;-2.30;100.00
51452;BME280;37521;52.020;-1.740;2023-04-25T05:28:08;100141.06;;;-2.25;100.00
51452;BME280;37521;52.020;-1.740;2023-04-25T05:30:37;100147.97;;;-2.25;100.00
51452;BME280;37521;52.020;-1.740;2023-04-25T05:33:16;100145.38;;;-2.24;100.00
51452;BME280;37521;52.020;-1.740;2023-04-25T05:35:45;100150.59;;;-2.17;100.00
51452;BME280;37521;52.020;-1.740;2023-04-25T05:38:14;100146.28;;;-2.17;100.00
51452;BME280;37521;52.020;-1.740;2023-04-25T05:41:02;100153.19;;;-2.14;100.00
51452;BME280;37521;52.020;-1.740;2023-04-25T05:43:52;100169.66;;;-2.06;100.00
51452;BME280;37521;52.020;-1.740;2023-04-25T05:46:29;100163.63;;;-2.04;100.00
51452;BME280;37521;52.020;-1.740;2023-04-25T05:49:16;100177.47;;;-1.96;100.00
51452;BME280;37521;52.020;-1.740;2023-04-25T05:52:04;100177.53;;;-1.88;100.00
51452;BME280;37521;52.020;-1.740;2023-04-25T05:54:33;100172.38;;;-1.86;100.00
51452;BME280;37521;52.020;-1.740;2023-04-25T05:57:03;100168.03;;;-1.87;100.00
51452;BME280;37521;52.020;-1.740;2023-04-25T05:59:31;100168.06;;;-1.86;100.00
51452;BME280;37521;52.020;-1.740;2023-04-25T06:02:00;100161.19;;;-1.81;100.00
51452;BME280;37521;52.020;-1.740;2023-04-25T06:04:33;100161.22;;;-1.75;100.00
51452;BME280;37521;52.020;-1.740;2023-04-25T06:07:02;100169.03;;;-1.69;100.00
51452;BME280;37521;52.020;-1.740;2023-04-25T06:09:31;100166.47;;;-1.62;100.00
51452;BME280;37521;52.020;-1.740;2023-04-25T06:12:00;100176.88;;;-1.56;100.00
51452;BME280;37521;52.020;-1.740;2023-04-25T06:14:30;100175.16;;;-1.53;100.00
51452;BME280;37521;52.020;-1.740;2023-04-25T06:16:58;100174.34;;;-1.46;100.00
51452;BME280;37521;52.020;-1.740;2023-04-25T06:19:33;100179.56;;;-1.40;100.00
51452;BME280;37521;52.020;-1.740;2023-04-25T06:22:01;100179.59;;;-1.33;100.00
51452;BME280;37521;52.020;-1.740;2023-04-25T06:24:31;100185.63;;;-1.28;100.00
51452;BME280;37521;52.020;-1.740;2023-04-25T06:27:02;100189.13;;;-1.25;100.00
51452;BME280;37521;52.020;-1.740;2023-04-25T06:29:32;100186.53;;;-1.22;100.00
51452;BME280;37521;52.020;-1.740;2023-04-25T06:32:00;100189.13;;;-1.19;100.00
51452;BME280;37521;52.020;-1.740;2023-04-25T06:34:29;100195.19;;;-1.15;100.00
51452;BME280;37521;52.020;-1.740;2023-04-25T06:36:58;100201.25;;;-1.12;100.00
51452;BME280;37521;52.020;-1.740;2023-04-25T06:39:27;100199.56;;;-1.06;100.00
51452;BME280;37521;52.020;-1.740;2023-04-25T06:41:55;100203.88;;;-1.01;100.00
51452;BME280;37521;52.020;-1.740;2023-04-25T06:44:44;100196.13;;;-0.90;100.00
51452;BME280;37521;52.020;-1.740;2023-04-25T06:47:13;100196.13;;;-0.87;100.00
51452;BME280;37521;52.020;-1.740;2023-04-25T06:49:42;100197.03;;;-0.80;100.00
51452;BME280;37521;52.020;-1.740;2023-04-25T06:52:12;100202.22;;;-0.76;100.00
51452;BME280;37521;52.020;-1.740;2023-04-25T06:54:46;100201.38;;;-0.72;100.00
51452;BME280;37521;52.020;-1.740;2023-04-25T06:57:27;100210.03;;;-0.68;100.00
51452;BME280;37521;52.020;-1.740;2023-04-25T07:00:08;100210.94;;;-0.60;100.00
51452;BME280;37521;52.020;-1.740;2023-04-25T07:02:37;100218.72;;;-0.52;100.00
51452;BME280;37521;52.020;-1.740;2023-04-25T07:05:06;100225.63;;;-0.42;100.00
51452;BME280;37521;52.020;-1.740;2023-04-25T07:07:35;100213.56;;;-0.31;100.00
51452;BME280;37521;52.020;-1.740;2023-04-25T07:10:03;100217.00;;;-0.23;100.00
51452;BME280;37521;52.020;-1.740;2023-04-25T07:12:32;100217.91;;;-0.18;100.00
51452;BME280;37521;52.020;-1.740;2023-04-25T07:15:01;100221.34;;;-0.04;100.00
51452;BME280;37521;52.020;-1.740;2023-04-25T07:17:34;100217.00;;;0.06;100.00
51452;BME280;37521;52.020;-1.740;2023-04-25T07:20:03;100222.22;;;0.14;100.00
51452;BME280;37521;52.020;-1.740;2023-04-25T07:22:32;100226.53;;;0.22;100.00
51452;BME280;37521;52.020;-1.740;2023-04-25T07:25:02;100231.69;;;0.33;100.00
51452;BME280;37521;52.020;-1.740;2023-04-25T07:27:31;100229.97;;;0.40;100.00
51452;BME280;37521;52.020;-1.740;2023-04-25T07:30:10;100235.16;;;0.50;100.00
51452;BME280;37521;52.020;-1.740;2023-04-25T07:32:40;100228.16;;;0.66;100.00
51452;BME280;37521;52.020;-1.740;2023-04-25T07:35:08;100234.22;;;0.76;100.00
51452;BME280;37521;52.020;-1.740;2023-04-25T07:37:37;100246.34;;;0.83;100.00
51452;BME280;37521;52.020;-1.740;2023-04-25T07:40:10;100247.19;;;0.84;100.00
51452;BME280;37521;52.020;-1.740;2023-04-25T07:42:45;100248.03;;;0.96;100.00
51452;BME280;37521;52.020;-1.740;2023-04-25T07:45:17;100242.78;;;1.08;100.00
51452;BME280;37521;52.020;-1.740;2023-04-25T07:47:47;100247.97;;;1.08;100.00
51452;BME280;37521;52.020;-1.740;2023-04-25T07:50:17;100249.66;;;1.22;100.00
51452;BME280;37521;52.020;-1.740;2023-04-25T07:52:46;100245.25;;;1.34;100.00
51452;BME280;37521;52.020;-1.740;2023-04-25T07:55:22;100247.78;;;1.45;100.00
51452;BME280;37521;52.020;-1.740;2023-04-25T07:58:00;100264.19;;;1.58;100.00
51452;BME280;37521;52.020;-1.740;2023-04-25T08:00:30;100252.91;;;1.59;100.00
51452;BME280;37521;52.020;-1.740;2023-04-25T08:03:19;100252.81;;;1.73;100.00
51452;BME280;37521;52.020;-1.740;2023-04-25T08:05:49;100247.59;;;1.79;100.00
51452;BME280;37521;52.020;-1.740;2023-04-25T08:08:18;100238.91;;;1.80;100.00
51452;BME280;37521;52.020;-1.740;2023-04-25T08:10:47;100245.00;;;1.76;100.00
51452;BME280;37521;52.020;-1.740;2023-04-25T08:13:16;100241.50;;;1.81;100.00
51452;BME280;37521;52.020;-1.740;2023-04-25T08:15:45;100242.38;;;1.82;100.00
51452;BME280;37521;52.020;-1.740;2023-04-25T08:18:13;100242.31;;;1.86;100.00
51452;BME280;37521;52.020;-1.740;2023-04-25T08:20:47;100239.66;;;1.97;100.00
51452;BME280;37521;52.020;-1.740;2023-04-25T08:23:16;100250.03;;;1.99;100.00
51452;BME280;37521;52.020;-1.740;2023-04-25T08:25:53;100256.06;;;2.05;100.00
51452;BME280;37521;52.020;-1.740;2023-04-25T08:28:25;100254.25;;;2.13;100.00
51452;BME280;37521;52.020;-1.740;2023-04-25T08:30:55;100262.09;;;2.15;100.00
51452;BME280;37521;52.020;-1.740;2023-04-25T08:33:25;100255.13;;;2.15;100.00
51452;BME280;37521;52.020;-1.740;2023-04-25T08:36:09;100252.53;;;2.15;100.00
51452;BME280;37521;52.020;-1.740;2023-04-25T08:38:37;100256.84;;;2.18;100.00
51452;BME280;37521;52.020;-1.740;2023-04-25T08:41:11;100260.31;;;2.22;100.00
51452;BME280;37521;52.020;-1.740;2023-04-25T08:43:42;100258.53;;;2.24;100.00
51452;BME280;37521;52.020;-1.740;2023-04-25T08:46:11;100267.13;;;2.33;100.00
51452;BME280;37521;52.020;-1.740;2023-04-25T08:48:57;100264.47;;;2.38;100.00
51452;BME280;37521;52.020;-1.740;2023-04-25T08:51:31;100257.41;;;2.51;100.00
51452;BME280;37521;52.020;-1.740;2023-04-25T08:54:09;100255.66;;;2.54;100.00
51452;BME280;37521;52.020;-1.740;2023-04-25T08:57:00;100257.28;;;2.64;100.00
51452;BME280;37521;52.020;-1.740;2023-04-25T08:59:32;100251.06;;;2.78;100.00
51452;BME280;37521;52.020;-1.740;2023-04-25T09:02:05;100250.16;;;2.82;100.00
51452;BME280;37521;52.020;-1.740;2023-04-25T09:04:33;100254.38;;;2.95;100.00
51452;BME280;37521;52.020;-1.740;2023-04-25T09:07:03;100259.41;;;3.10;100.00
51452;BME280;37521;52.020;-1.740;2023-04-25T09:09:32;100259.41;;;3.10;100.00
51452;BME280;37521;52.020;-1.740;2023-04-25T09:12:00;100255.84;;;3.14;100.00
51452;BME280;37521;52.020;-1.740;2023-04-25T09:14:28;100253.97;;;3.25;100.00
51452;BME280;37521;52.020;-1.740;2023-04-25T09:17:04;100254.72;;;3.34;100.00
51452;BME280;37521;52.020;-1.740;2023-04-25T09:19:41;100249.34;;;3.46;100.00
51452;BME280;37521;52.020;-1.740;2023-04-25T09:22:18;100255.06;;;3.74;100.00
51452;BME280;37521;52.020;-1.740;2023-04-25T09:24:49;100246.06;;;3.95;100.00
51452;BME280;37521;52.020;-1.740;2023-04-25T09:27:21;100252.00;;;4.04;100.00
51452;BME280;37521;52.020;-1.740;2023-04-25T09:29:57;100247.56;;;4.09;100.00
51452;BME280;37521;52.020;-1.740;2023-04-25T09:32:37;100248.22;;;4.21;100.00
51452;BME280;37521;52.020;-1.740;2023-04-25T09:35:05;100248.56;;;4.52;100.00
51452;BME280;37521;52.020;-1.740;2023-04-25T09:37:36;100244.88;;;4.63;100.00
51452;BME280;37521;52.020;-1.740;2023-04-25T09:40:06;100247.47;;;4.65;100.00
51452;BME280;37521;52.020;-1.740;2023-04-25T09:42:48;100247.41;;;4.68;100.00
51452;BME280;37521;52.020;-1.740;2023-04-25T09:45:17;100245.44;;;4.79;100.00
51452;BME280;37521;52.020;-1.740;2023-04-25T09:47:45;100238.28;;;4.90;100.00
51452;BME280;37521;52.020;-1.740;2023-04-25T09:50:19;100233.81;;;4.94;100.00
51452;BME280;37521;52.020;-1.740;2023-04-25T09:53:04;100234.44;;;5.07;100.00
51452;BME280;37521;52.020;-1.740;2023-04-25T09:55:52;100239.44;;;5.19;100.00
51452;BME280;37521;52.020;-1.740;2023-04-25T09:58:20;100238.66;;;5.56;100.00
51452;BME280;37521;52.020;-1.740;2023-04-25T10:00:49;100235.03;;;6.00;100.00
51452;BME280;37521;52.020;-1.740;2023-04-25T10:03:32;100230.63;;;6.02;100.00
51452;BME280;37521;52.020;-1.740;2023-04-25T10:06:20;100228.06;;;5.99;100.00
51452;BME280;37521;52.020;-1.740;2023-04-25T10:08:52;100229.50;;;6.12;100.00
51452;BME280;37521;52.020;-1.740;2023-04-25T10:11:24;100223.25;;;6.18;100.00
51452;BME280;37521;52.020;-1.740;2023-04-25T10:13:54;100230.75;;;6.32;100.00
51452;BME280;37521;52.020;-1.740;2023-04-25T10:16:24;100228.88;;;6.37;100.00
51452;BME280;37521;52.020;-1.740;2023-04-25T10:18:53;100228.28;;;6.25;100.00
51452;BME280;37521;52.020;-1.740;2023-04-25T10:21:21;100226.69;;;6.20;100.00
51452;BME280;37521;52.020;-1.740;2023-04-25T10:23:49;100226.69;;;6.20;100.00
51452;BME280;37521;52.020;-1.740;2023-04-25T10:26:20;100227.38;;;6.26;100.00
51452;BME280;37521;52.020;-1.740;2023-04-25T10:29:07;100230.44;;;6.44;100.00
51452;BME280;37521;52.020;-1.740;2023-04-25T10:31:45;100234.44;;;6.59;100.00
51452;BME280;37521;52.020;-1.740;2023-04-25T10:34:13;100242.72;;;6.42;100.00
51452;BME280;37521;52.020;-1.740;2023-04-25T10:36:49;100245.72;;;6.62;100.00
51452;BME280;37521;52.020;-1.740;2023-04-25T10:39:22;100229.19;;;7.21;100.00
51452;BME280;37521;52.020;-1.740;2023-04-25T10:41:56;100246.50;;;7.28;100.00
51452;BME280;37521;52.020;-1.740;2023-04-25T10:44:26;100234.44;;;6.91;100.00
51452;BME280;37521;52.020;-1.740;2023-04-25T10:46:56;100236.88;;;6.97;100.00
51452;BME280;37521;52.020;-1.740;2023-04-25T10:49:32;100239.34;;;6.71;100.00
51452;BME280;37521;52.020;-1.740;2023-04-25T10:52:24;100236.84;;;6.99;100.00
51452;BME280;37521;52.020;-1.740;2023-04-25T10:54:54;100230.91;;;7.23;96.56
51452;BME280;37521;52.020;-1.740;2023-04-25T10:57:33;100231.47;;;7.03;96.90
51452;BME280;37521;52.020;-1.740;2023-04-25T11:00:08;100235.00;;;6.70;95.73
51452;BME280;37521;52.020;-1.740;2023-04-25T11:02:41;100229.81;;;6.34;100.00
51452;BME280;37521;52.020;-1.740;2023-04-25T11:05:16;100235.97;;;5.97;99.01
51452;BME280;37521;52.020;-1.740;2023-04-25T11:07:50;100239.53;;;5.55;100.00
51452;BME280;37521;52.020;-1.740;2023-04-25T11:10:33;100238.66;;;5.54;100.00
51452;BME280;37521;52.020;-1.740;2023-04-25T11:13:04;100227.06;;;6.39;100.00
51452;BME280;37521;52.020;-1.740;2023-04-25T11:15:32;100229.53;;;7.08;94.91
51452;BME280;37521;52.020;-1.740;2023-04-25T11:18:00;100230.22;;;7.15;93.36
51452;BME280;37521;52.020;-1.740;2023-04-25T11:20:29;100231.88;;;6.88;94.96
51452;BME280;37521;52.020;-1.740;2023-04-25T11:22:58;100235.44;;;6.53;93.47
51452;BME280;37521;52.020;-1.740;2023-04-25T11:25:27;100234.63;;;6.17;95.37
51452;BME280;37521;52.020;-1.740;2023-04-25T11:27:58;100241.47;;;5.85;99.26
51452;BME280;37521;52.020;-1.740;2023-04-25T11:30:29;100248.84;;;5.68;100.00
51452;BME280;37521;52.020;-1.740;2023-04-25T11:32:58;100250.00;;;5.55;100.00
51452;BME280;37521;52.020;-1.740;2023-04-25T11:35:26;100250.13;;;5.50;100.00
51452;BME280;37521;52.020;-1.740;2023-04-25T11:37:54;100246.81;;;5.40;100.00
51452;BME280;37521;52.020;-1.740;2023-04-25T11:40:23;100251.97;;;5.45;100.00
51452;BME280;37521;52.020;-1.740;2023-04-25T11:42:51;100243.31;;;5.80;98.78
51452;BME280;37521;52.020;-1.740;2023-04-25T11:45:22;100238.59;;;6.33;94.48
51452;BME280;37521;52.020;-1.740;2023-04-25T11:47:52;100234.72;;;7.12;93.65
51452;BME280;37521;52.020;-1.740;2023-04-25T11:50:20;100232.38;;;7.89;86.07
51452;BME280;37521;52.020;-1.740;2023-04-25T11:52:48;100237.78;;;7.85;82.83
51452;BME280;37521;52.020;-1.740;2023-04-25T11:55:18;100244.38;;;7.41;83.87
51452;BME280;37521;52.020;-1.740;2023-04-25T11:57:48;100237.53;;;6.73;78.35
51452;BME280;37521;52.020;-1.740;2023-04-25T12:00:18;100238.97;;;6.18;78.49
51452;BME280;37521;52.020;-1.740;2023-04-25T12:02:52;100237.69;;;5.98;76.00
51452;BME280;37521;52.020;-1.740;2023-04-25T12:05:24;100227.47;;;6.58;78.13
51452;BME280;37521;52.020;-1.740;2023-04-25T12:08:09;100236.25;;;6.89;85.30
51452;BME280;37521;52.020;-1.740;2023-04-25T12:10:40;100234.34;;;6.62;82.77
51452;BME280;37521;52.020;-1.740;2023-04-25T12:13:28;100233.50;;;6.27;78.27
51452;BME280;37521;52.020;-1.740;2023-04-25T12:15:56;100235.84;;;6.38;77.46
51452;BME280;37521;52.020;-1.740;2023-04-25T12:18:27;100237.53;;;6.73;80.13
51452;BME280;37521;52.020;-1.740;2023-04-25T12:20:55;100233.81;;;7.42;75.22
51452;BME280;37521;52.020;-1.740;2023-04-25T12:23:26;100237.75;;;7.29;73.28
51452;BME280;37521;52.020;-1.740;2023-04-25T12:25:55;100246.38;;;6.70;70.75
51452;BME280;37521;52.020;-1.740;2023-04-25T12:28:24;100251.13;;;6.22;83.97
51452;BME280;37521;52.020;-1.740;2023-04-25T12:30:56;100253.50;;;5.95;81.94
51452;BME280;37521;52.020;-1.740;2023-04-25T12:33:27;100249.50;;;5.78;83.22
51452;BME280;37521;52.020;-1.740;2023-04-25T12:35:56;100255.69;;;6.48;83.91
51452;BME280;37521;52.020;-1.740;2023-04-25T12:38:26;100231.22;;;7.70;73.64
51452;BME280;37521;52.020;-1.740;2023-04-25T12:40:54;100239.19;;;8.74;71.00
51452;BME280;37521;52.020;-1.740;2023-04-25T12:43:22;100235.16;;;8.89;65.43
51452;BME280;37521;52.020;-1.740;2023-04-25T12:45:52;100235.03;;;9.17;63.75
51452;BME280;37521;52.020;-1.740;2023-04-25T12:48:21;100233.34;;;8.66;64.86
51452;BME280;37521;52.020;-1.740;2023-04-25T12:50:51;100232.41;;;7.88;67.78
51452;BME280;37521;52.020;-1.740;2023-04-25T12:53:20;100238.91;;;7.19;67.67
51452;BME280;37521;52.020;-1.740;2023-04-25T12:55:49;100249.66;;;6.78;72.84
51452;BME280;37521;52.020;-1.740;2023-04-25T12:58:18;100255.56;;;6.52;70.25
51452;BME280;37521;52.020;-1.740;2023-04-25T13:00:47;100246.41;;;6.35;72.62
51452;BME280;37521;52.020;-1.740;2023-04-25T13:03:15;100235.06;;;6.34;72.20